LZIB

M. R. Štefánik Airport

Bratislava, Slovakia (Slovak Republic)
METAR LZIB 210930Z 03003KT 340V070 CAVOK M02/M08 Q1022 NOSIG
Observed Flight Rules
Jan-21 @ 09:30 UTC (19 minutes ago) Visual Flight Rules
Wind Visibility Clouds
30° at 3 knots 10,000+ meters
  • Clear skies
Temperatures Readings
Current -2°C / 28°F
Dewpoint -8°C / 18°F
Humidity 64%
Altimeter 30.18" Hg
Pressure 1021.92 hPa
Elevation 134
METAR LZIB 210930Z 03003KT 340V070 CAVOK M02/M08 Q1022 NOSIG
Observed Flight Rules
Jan-21 @ 09:30 UTC
(19 minutes ago)
VFR
Wind Visibility
30° at 3 knots 10,000+ meters
Clouds
  • Clear skies
Temperature Dewpoint
-2°C / 28°F -8°C / 18°F
Humidity Altimeter Pressure
64% 30.18" Hg 1021.92 hPa